createdAt,value
2017-06-16T00:03:44.520Z,88.02
2017-06-16T00:08:40.259Z,88.02
2017-06-16T00:13:35.971Z,88.69
2017-06-16T00:18:31.545Z,89.99
2017-06-16T00:23:27.516Z,90.18
2017-06-16T00:28:23.638Z,91.24
2017-06-16T00:33:19.764Z,90.85
2017-06-16T00:38:15.916Z,91.52
2017-06-16T00:43:12.729Z,90.95
2017-06-16T00:48:08.200Z,90.95
2017-06-16T00:53:05.324Z,91.62
2017-06-16T00:58:00.498Z,91.72
2017-06-16T01:02:56.374Z,91.42
2017-06-16T01:07:53.404Z,91.24
2017-06-16T01:12:48.937Z,90.95
2017-06-16T01:17:46.013Z,91.05
2017-06-16T01:22:42.250Z,90.75
2017-06-16T01:27:39.038Z,91.33
2017-06-16T01:32:36.298Z,91.81
2017-06-16T01:37:31.794Z,91.33
2017-06-16T01:42:27.638Z,91.05
2017-06-16T01:47:23.530Z,91.24
2017-06-16T01:52:20.524Z,91.91
2017-06-16T01:57:17.128Z,91.91
2017-06-16T02:02:12.706Z,92.39
2017-06-16T02:07:09.316Z,92.82
2017-06-16T02:12:05.503Z,93.54
2017-06-16T02:17:02.382Z,94.21
2017-06-16T02:21:57.957Z,94.17
2017-06-16T02:26:54.521Z,94.64
2017-06-16T02:31:50.338Z,95.21
2017-06-16T02:36:46.045Z,95.21
2017-06-16T02:41:42.098Z,96.18
2017-06-16T02:46:37.902Z,96.56
2017-06-16T02:51:33.727Z,96.66
2017-06-16T02:56:29.593Z,96.75
2017-06-16T03:01:26.372Z,97.14
2017-06-16T03:06:22.611Z,97.14
2017-06-16T03:11:18.398Z,98.00
2017-06-16T03:16:14.208Z,98.00
2017-06-16T03:21:10.332Z,98.00
2017-06-16T03:26:05.987Z,98.96
2017-06-16T03:31:02.060Z,98.48
2017-06-16T03:35:59.044Z,99.29
2017-06-16T03:40:54.934Z,98.57
2017-06-16T03:45:50.823Z,99.24
2017-06-16T03:50:46.861Z,98.96
2017-06-16T03:55:42.851Z,99.91
2017-06-16T04:00:39.763Z,99.99
2017-06-16T04:05:36.499Z,99.99
2017-06-16T04:10:31.979Z,99.99
2017-06-16T04:15:28.370Z,99.99
2017-06-16T04:20:24.535Z,99.34
2017-06-16T04:25:21.864Z,99.05
2017-06-16T04:30:18.605Z,99.24
2017-06-16T04:35:15.558Z,99.44
2017-06-16T04:40:12.007Z,99.05
2017-06-16T04:45:08.572Z,99.24
2017-06-16T04:50:04.341Z,98.38
2017-06-16T04:55:00.380Z,99.63
2017-06-16T04:59:56.085Z,99.05
2017-06-16T05:04:52.619Z,96.61
2017-06-16T05:09:49.449Z,95.89
2017-06-16T05:14:45.810Z,96.13
2017-06-16T05:19:41.794Z,96.80
2017-06-16T05:24:37.615Z,96.75
2017-06-16T05:29:33.255Z,96.70
2017-06-16T05:34:29.333Z,96.80
2017-06-16T05:39:25.235Z,96.66
2017-06-16T05:44:21.039Z,96.18
2017-06-16T05:49:17.249Z,95.50
2017-06-16T05:54:13.501Z,94.69
2017-06-16T05:59:09.528Z,94.11
2017-06-16T06:04:05.522Z,93.82
2017-06-16T06:09:01.777Z,92.86
2017-06-16T06:13:58.686Z,93.01
2017-06-16T06:18:54.588Z,93.92
2017-06-16T06:23:50.590Z,93.92
2017-06-16T06:28:46.458Z,94.69
2017-06-16T06:33:43.234Z,94.40
2017-06-16T06:38:38.498Z,93.92
2017-06-16T06:43:34.300Z,94.59
2017-06-16T06:48:29.887Z,94.83
2017-06-16T06:53:25.767Z,95.31
2017-06-16T06:58:21.522Z,94.93
2017-06-16T07:03:17.954Z,94.69
2017-06-16T07:08:13.781Z,92.96
2017-06-16T07:13:10.364Z,92.43
2017-06-16T07:18:06.533Z,92.24
2017-06-16T07:23:03.661Z,90.80
2017-06-16T07:27:59.180Z,91.47
2017-06-16T07:32:55.312Z,91.56
2017-06-16T07:37:51.259Z,90.60
2017-06-16T07:42:47.544Z,89.16
2017-06-16T07:47:45.002Z,87.04
2017-06-16T07:52:42.464Z,83.52
2017-06-16T07:57:39.491Z,81.25
2017-06-16T08:02:39.321Z,77.86
2017-06-16T08:07:34.521Z,78.40
2017-06-16T08:12:29.578Z,78.46
2017-06-16T08:17:24.378Z,79.48
2017-06-16T08:22:19.399Z,80.88
2017-06-16T08:27:15.737Z,81.71
2017-06-16T08:32:11.061Z,81.99
2017-06-16T08:37:07.384Z,81.37
2017-06-16T08:42:06.793Z,78.08
2017-06-16T08:47:02.596Z,78.46
2017-06-16T08:51:58.097Z,77.53
2017-06-16T08:56:55.194Z,76.25
2017-06-16T09:01:50.864Z,75.99
2017-06-16T09:06:47.667Z,73.88
2017-06-16T09:11:44.803Z,72.88
2017-06-16T09:16:39.872Z,72.49
2017-06-16T09:21:34.937Z,72.45
2017-06-16T09:26:31.477Z,71.40
2017-06-16T09:31:27.953Z,72.26
2017-06-16T09:36:23.365Z,74.63
2017-06-16T09:41:19.902Z,74.82
2017-06-16T09:46:15.053Z,76.90
2017-06-16T09:51:10.566Z,79.75
2017-06-16T09:56:07.690Z,82.67
2017-06-16T10:01:03.697Z,80.36
2017-06-16T10:06:01.880Z,78.38
2017-06-16T10:10:58.412Z,76.59
2017-06-16T10:15:53.406Z,76.65
2017-06-16T10:20:48.923Z,76.94
2017-06-16T10:25:45.387Z,72.13
2017-06-16T10:30:42.185Z,71.97
2017-06-16T10:35:37.680Z,71.97
2017-06-16T10:40:34.900Z,72.42
2017-06-16T10:45:30.049Z,71.65
2017-06-16T10:50:25.406Z,72.48
2017-06-16T10:55:21.281Z,71.81
2017-06-16T11:00:17.580Z,72.29
2017-06-16T11:05:16.728Z,70.43
2017-06-16T11:10:13.496Z,69.60
2017-06-16T11:15:09.371Z,70.43
2017-06-16T11:20:04.120Z,71.08
2017-06-16T11:25:00.406Z,68.67
2017-06-16T11:29:56.127Z,68.96
2017-06-16T11:34:51.930Z,69.82
2017-06-16T11:39:49.127Z,69.53
2017-06-16T11:44:44.913Z,71.17
2017-06-16T11:49:41.550Z,72.32
2017-06-16T11:54:37.951Z,71.81
2017-06-16T11:59:33.426Z,71.42
2017-06-16T12:04:30.541Z,70.84
2017-06-16T12:09:26.746Z,69.53
2017-06-16T12:14:23.771Z,69.34
2017-06-16T12:19:19.970Z,70.94
2017-06-16T12:24:15.385Z,71.04
2017-06-16T12:29:11.180Z,68.44
2017-06-16T12:34:07.369Z,69.02
2017-06-16T12:39:03.213Z,70.17
2017-06-16T12:43:59.445Z,68.63
2017-06-16T12:48:55.843Z,67.10
2017-06-16T12:53:53.039Z,66.65
2017-06-16T12:58:48.904Z,66.65
2017-06-16T13:03:44.675Z,66.17
2017-06-16T13:08:40.903Z,68.29
2017-06-16T13:13:37.751Z,67.51
2017-06-16T13:18:33.468Z,64.92
2017-06-16T13:23:29.321Z,65.30
2017-06-16T13:28:26.872Z,66.52
2017-06-16T13:33:22.766Z,67.58
2017-06-16T13:38:18.000Z,69.02
2017-06-16T13:43:14.309Z,70.17
2017-06-16T13:48:10.510Z,70.46
2017-06-16T13:53:06.347Z,71.33
2017-06-16T13:58:04.094Z,70.27
2017-06-16T14:03:00.406Z,70.07
2017-06-16T14:07:56.462Z,68.83
2017-06-16T14:12:53.744Z,68.63
2017-06-16T14:17:49.324Z,67.42
2017-06-16T14:22:45.030Z,67.38
2017-06-16T14:27:42.137Z,67.38
2017-06-16T14:32:38.241Z,67.68
2017-06-16T14:37:34.069Z,67.38
2017-06-16T14:42:29.756Z,68.73
2017-06-16T14:47:25.825Z,67.90
2017-06-16T14:52:21.981Z,67.90
2017-06-16T14:57:17.590Z,66.91
2017-06-16T15:02:13.205Z,68.79
2017-06-16T15:07:08.549Z,69.85
2017-06-16T15:12:05.014Z,71.58
2017-06-16T15:17:01.535Z,71.87
2017-06-16T15:21:57.437Z,70.72
2017-06-16T15:26:53.185Z,68.95
2017-06-16T15:31:49.173Z,68.66
2017-06-16T15:36:45.782Z,67.35
2017-06-16T15:41:42.835Z,67.64
2017-06-16T15:46:38.483Z,66.97
2017-06-16T15:51:34.165Z,68.41
2017-06-16T15:56:30.809Z,67.74
2017-06-16T16:01:26.016Z,69.24
2017-06-16T16:06:22.978Z,70.20
2017-06-16T16:11:19.641Z,70.97
2017-06-16T16:16:15.273Z,70.14
2017-06-16T16:21:11.541Z,69.37
2017-06-16T16:26:07.499Z,68.60
2017-06-16T16:31:03.415Z,68.60
2017-06-16T16:35:59.266Z,69.27
2017-06-16T16:40:56.100Z,69.05
2017-06-16T16:45:51.340Z,69.62
2017-06-16T16:50:48.350Z,70.58
2017-06-16T16:55:45.346Z,70.39
2017-06-16T17:00:41.133Z,70.49
2017-06-16T17:05:37.195Z,70.97
2017-06-16T17:10:33.433Z,71.55
2017-06-16T17:15:29.819Z,72.22
2017-06-16T17:20:25.447Z,71.83
2017-06-16T17:25:21.434Z,71.83
2017-06-16T17:30:18.165Z,71.35
2017-06-16T17:35:13.602Z,71.70
2017-06-16T17:40:09.407Z,71.89
2017-06-16T17:45:05.400Z,72.75
2017-06-16T17:50:01.223Z,71.98
2017-06-16T17:54:58.559Z,72.75
2017-06-16T17:59:53.603Z,72.47
2017-06-16T18:04:49.835Z,71.89
2017-06-16T18:09:45.738Z,72.47
2017-06-16T18:14:42.575Z,73.24
2017-06-16T18:19:38.493Z,73.75
2017-06-16T18:24:34.971Z,74.52
2017-06-16T18:29:31.817Z,73.33
2017-06-16T18:34:27.148Z,73.72
2017-06-16T18:39:23.556Z,74.87
2017-06-16T18:44:19.292Z,74.93
2017-06-16T18:49:14.953Z,75.21
2017-06-16T18:54:11.003Z,76.27
2017-06-16T18:59:07.010Z,76.37
2017-06-16T19:04:03.138Z,77.13
2017-06-16T19:08:59.109Z,76.56
2017-06-16T19:13:56.380Z,76.94
2017-06-16T19:18:52.038Z,77.13
2017-06-16T19:23:47.808Z,76.75
2017-06-16T19:28:44.244Z,76.65
2017-06-16T19:33:40.328Z,76.46
2017-06-16T19:38:36.445Z,76.56
2017-06-16T19:43:32.121Z,76.27
2017-06-16T19:48:27.996Z,76.75
2017-06-16T19:53:25.060Z,76.71
2017-06-16T19:58:20.272Z,76.71
2017-06-16T20:03:17.159Z,76.81
2017-06-16T20:08:12.796Z,77.19
2017-06-16T20:13:08.505Z,77.86
2017-06-16T20:18:05.400Z,78.15
2017-06-16T20:23:01.797Z,78.72
2017-06-16T20:27:57.508Z,78.92
2017-06-16T20:32:53.233Z,79.26
2017-06-16T20:37:48.920Z,79.88
2017-06-16T20:42:45.189Z,79.93
2017-06-16T20:47:40.887Z,80.03
2017-06-16T20:52:37.215Z,81.04
2017-06-16T20:57:32.860Z,81.90
2017-06-16T21:02:28.930Z,81.81
2017-06-16T21:07:26.010Z,83.44
2017-06-16T21:12:21.704Z,83.05
2017-06-16T21:17:17.355Z,82.96
2017-06-16T21:22:13.470Z,83.72
2017-06-16T21:27:10.244Z,84.68
2017-06-16T21:32:05.926Z,85.12
2017-06-16T21:37:01.450Z,85.50
2017-06-16T21:41:57.301Z,85.41
2017-06-16T21:46:52.953Z,85.79
2017-06-16T21:51:49.495Z,86.65
2017-06-16T21:56:46.282Z,86.36
2017-06-16T22:01:41.799Z,86.84
2017-06-16T22:06:37.726Z,87.90
2017-06-16T22:11:34.146Z,87.03
2017-06-16T22:16:30.300Z,87.80
2017-06-16T22:21:26.936Z,87.41
2017-06-16T22:26:22.574Z,87.76
2017-06-16T22:31:18.432Z,88.13
2017-06-16T22:36:14.261Z,88.52
2017-06-16T22:41:10.039Z,87.95
2017-06-16T22:46:05.783Z,89.38
2017-06-16T22:51:01.696Z,88.23
2017-06-16T22:55:58.611Z,89.09
2017-06-16T23:00:54.242Z,89.62
2017-06-16T23:05:49.978Z,88.86
2017-06-16T23:10:45.728Z,89.91
2017-06-16T23:15:41.539Z,89.72
2017-06-16T23:20:37.322Z,90.39
2017-06-16T23:25:33.110Z,89.72
2017-06-16T23:30:29.411Z,90.58
2017-06-16T23:35:26.105Z,90.77
2017-06-16T23:40:22.994Z,90.30
2017-06-16T23:45:19.463Z,90.01
2017-06-16T23:50:14.894Z,90.58
2017-06-16T23:55:11.189Z,90.87
